sensor_id;sensor_type;location;lat;lon;timestamp;P1;durP1;ratioP1;P2;durP2;ratioP2
1128;SDS011;553;51.038;7.216;2022-10-30T00:00:57;15.13;;;6.10;;
1128;SDS011;553;51.038;7.216;2022-10-30T00:03:24;14.13;;;4.93;;
1128;SDS011;553;51.038;7.216;2022-10-30T00:05:51;11.70;;;5.37;;
1128;SDS011;553;51.038;7.216;2022-10-30T00:08:18;14.10;;;5.70;;
1128;SDS011;553;51.038;7.216;2022-10-30T00:10:47;9.57;;;5.30;;
1128;SDS011;553;51.038;7.216;2022-10-30T00:13:17;10.60;;;5.40;;
1128;SDS011;553;51.038;7.216;2022-10-30T00:15:52;9.07;;;5.10;;
1128;SDS011;553;51.038;7.216;2022-10-30T00:18:19;13.93;;;5.80;;
1128;SDS011;553;51.038;7.216;2022-10-30T00:20:46;10.33;;;5.97;;
1128;SDS011;553;51.038;7.216;2022-10-30T00:23:13;17.63;;;6.50;;
1128;SDS011;553;51.038;7.216;2022-10-30T00:25:40;9.37;;;5.90;;
1128;SDS011;553;51.038;7.216;2022-10-30T00:28:07;12.53;;;5.77;;
1128;SDS011;553;51.038;7.216;2022-10-30T00:30:34;9.40;;;5.80;;
1128;SDS011;553;51.038;7.216;2022-10-30T00:33:01;14.87;;;6.60;;
1128;SDS011;553;51.038;7.216;2022-10-30T00:35:28;13.40;;;6.17;;
1128;SDS011;553;51.038;7.216;2022-10-30T00:37:55;9.40;;;5.70;;
1128;SDS011;553;51.038;7.216;2022-10-30T00:40:23;12.00;;;5.60;;
1128;SDS011;553;51.038;7.216;2022-10-30T00:42:49;9.20;;;5.53;;
1128;SDS011;553;51.038;7.216;2022-10-30T00:45:17;9.67;;;6.13;;
1128;SDS011;553;51.038;7.216;2022-10-30T00:47:44;13.63;;;6.07;;
1128;SDS011;553;51.038;7.216;2022-10-30T00:50:23;13.97;;;6.10;;
1128;SDS011;553;51.038;7.216;2022-10-30T00:55:30;8.60;;;6.03;;
1128;SDS011;553;51.038;7.216;2022-10-30T00:58:03;11.00;;;6.40;;
1128;SDS011;553;51.038;7.216;2022-10-30T01:00:34;11.10;;;6.00;;
1128;SDS011;553;51.038;7.216;2022-10-30T01:03:02;13.67;;;6.07;;
1128;SDS011;553;51.038;7.216;2022-10-30T01:05:29;12.10;;;6.07;;
1128;SDS011;553;51.038;7.216;2022-10-30T01:07:58;11.67;;;4.87;;
1128;SDS011;553;51.038;7.216;2022-10-30T01:10:25;9.80;;;5.73;;
1128;SDS011;553;51.038;7.216;2022-10-30T01:12:52;10.80;;;6.00;;
1128;SDS011;553;51.038;7.216;2022-10-30T01:15:25;8.57;;;5.70;;
1128;SDS011;553;51.038;7.216;2022-10-30T01:21:00;14.00;;;6.07;;
1128;SDS011;553;51.038;7.216;2022-10-30T01:26:25;15.67;;;6.63;;
1128;SDS011;553;51.038;7.216;2022-10-30T01:29:25;13.03;;;5.50;;
1128;SDS011;553;51.038;7.216;2022-10-30T01:40:18;11.80;;;6.60;;
1128;SDS011;553;51.038;7.216;2022-10-30T01:42:47;19.33;;;7.70;;
1128;SDS011;553;51.038;7.216;2022-10-30T01:57:03;12.33;;;5.77;;
1128;SDS011;553;51.038;7.216;2022-10-30T02:02:22;9.63;;;6.17;;
1128;SDS011;553;51.038;7.216;2022-10-30T02:04:50;13.50;;;7.23;;
1128;SDS011;553;51.038;7.216;2022-10-30T02:07:17;13.53;;;6.27;;
1128;SDS011;553;51.038;7.216;2022-10-30T02:09:49;12.10;;;5.90;;
1128;SDS011;553;51.038;7.216;2022-10-30T02:12:17;12.57;;;6.77;;
1128;SDS011;553;51.038;7.216;2022-10-30T02:14:46;10.90;;;7.27;;
1128;SDS011;553;51.038;7.216;2022-10-30T02:17:16;12.73;;;6.60;;
1128;SDS011;553;51.038;7.216;2022-10-30T02:19:47;14.10;;;6.83;;
1128;SDS011;553;51.038;7.216;2022-10-30T02:22:14;15.20;;;6.93;;
1128;SDS011;553;51.038;7.216;2022-10-30T02:24:43;15.50;;;6.30;;
1128;SDS011;553;51.038;7.216;2022-10-30T02:27:10;12.53;;;6.63;;
1128;SDS011;553;51.038;7.216;2022-10-30T02:29:38;16.23;;;6.63;;
1128;SDS011;553;51.038;7.216;2022-10-30T02:32:05;11.23;;;6.10;;
1128;SDS011;553;51.038;7.216;2022-10-30T02:34:33;10.40;;;6.23;;
1128;SDS011;553;51.038;7.216;2022-10-30T02:37:00;9.07;;;6.60;;
1128;SDS011;553;51.038;7.216;2022-10-30T02:39:26;11.37;;;6.13;;
1128;SDS011;553;51.038;7.216;2022-10-30T02:41:53;10.47;;;6.50;;
1128;SDS011;553;51.038;7.216;2022-10-30T02:44:20;13.40;;;6.43;;
1128;SDS011;553;51.038;7.216;2022-10-30T02:46:47;14.20;;;7.53;;
1128;SDS011;553;51.038;7.216;2022-10-30T02:49:14;12.23;;;7.13;;
1128;SDS011;553;51.038;7.216;2022-10-30T02:51:40;12.37;;;6.80;;
1128;SDS011;553;51.038;7.216;2022-10-30T02:54:07;12.10;;;6.80;;
1128;SDS011;553;51.038;7.216;2022-10-30T02:56:35;14.63;;;6.87;;
1128;SDS011;553;51.038;7.216;2022-10-30T02:59:05;11.13;;;6.33;;
1128;SDS011;553;51.038;7.216;2022-10-30T03:01:31;13.80;;;6.80;;
1128;SDS011;553;51.038;7.216;2022-10-30T03:03:58;11.10;;;7.00;;
1128;SDS011;553;51.038;7.216;2022-10-30T03:06:25;14.63;;;7.13;;
1128;SDS011;553;51.038;7.216;2022-10-30T03:08:52;20.77;;;7.57;;
1128;SDS011;553;51.038;7.216;2022-10-30T03:11:19;16.43;;;7.77;;
1128;SDS011;553;51.038;7.216;2022-10-30T03:13:46;12.30;;;7.17;;
1128;SDS011;553;51.038;7.216;2022-10-30T03:16:21;12.13;;;7.10;;
1128;SDS011;553;51.038;7.216;2022-10-30T03:18:50;15.60;;;6.33;;
1128;SDS011;553;51.038;7.216;2022-10-30T03:21:18;15.90;;;7.20;;
1128;SDS011;553;51.038;7.216;2022-10-30T03:23:47;15.60;;;7.57;;
1128;SDS011;553;51.038;7.216;2022-10-30T03:26:17;11.90;;;7.07;;
1128;SDS011;553;51.038;7.216;2022-10-30T03:28:50;19.17;;;7.87;;
1128;SDS011;553;51.038;7.216;2022-10-30T03:31:18;11.50;;;6.40;;
1128;SDS011;553;51.038;7.216;2022-10-30T03:33:47;16.37;;;6.90;;
1128;SDS011;553;51.038;7.216;2022-10-30T03:36:15;11.70;;;7.10;;
1128;SDS011;553;51.038;7.216;2022-10-30T03:38:42;15.57;;;7.60;;
1128;SDS011;553;51.038;7.216;2022-10-30T03:41:12;12.73;;;6.60;;
1128;SDS011;553;51.038;7.216;2022-10-30T03:43:39;10.40;;;6.60;;
1128;SDS011;553;51.038;7.216;2022-10-30T03:46:05;13.43;;;7.10;;
1128;SDS011;553;51.038;7.216;2022-10-30T03:48:33;22.13;;;7.80;;
1128;SDS011;553;51.038;7.216;2022-10-30T03:50:59;17.50;;;7.10;;
1128;SDS011;553;51.038;7.216;2022-10-30T03:53:27;14.90;;;6.67;;
1128;SDS011;553;51.038;7.216;2022-10-30T03:56:01;15.30;;;6.83;;
1128;SDS011;553;51.038;7.216;2022-10-30T03:58:52;10.30;;;6.97;;
1128;SDS011;553;51.038;7.216;2022-10-30T04:01:20;15.07;;;7.60;;
1128;SDS011;553;51.038;7.216;2022-10-30T04:03:53;17.50;;;7.53;;
1128;SDS011;553;51.038;7.216;2022-10-30T04:06:20;11.40;;;7.60;;
1128;SDS011;553;51.038;7.216;2022-10-30T04:08:47;17.40;;;8.70;;
1128;SDS011;553;51.038;7.216;2022-10-30T04:11:13;16.13;;;7.03;;
1128;SDS011;553;51.038;7.216;2022-10-30T04:13:40;15.03;;;7.27;;
1128;SDS011;553;51.038;7.216;2022-10-30T04:16:07;11.83;;;8.30;;
1128;SDS011;553;51.038;7.216;2022-10-30T04:18:33;14.40;;;8.20;;
1128;SDS011;553;51.038;7.216;2022-10-30T04:21:00;13.30;;;7.77;;
1128;SDS011;553;51.038;7.216;2022-10-30T04:23:27;17.17;;;6.73;;
1128;SDS011;553;51.038;7.216;2022-10-30T04:25:54;11.17;;;7.40;;
1128;SDS011;553;51.038;7.216;2022-10-30T04:28:21;17.97;;;7.97;;
1128;SDS011;553;51.038;7.216;2022-10-30T04:30:48;11.00;;;6.77;;
1128;SDS011;553;51.038;7.216;2022-10-30T04:33:16;13.40;;;7.40;;
1128;SDS011;553;51.038;7.216;2022-10-30T04:35:43;13.57;;;6.70;;
1128;SDS011;553;51.038;7.216;2022-10-30T04:38:18;8.70;;;6.20;;
1128;SDS011;553;51.038;7.216;2022-10-30T04:40:46;14.57;;;6.90;;
1128;SDS011;553;51.038;7.216;2022-10-30T04:43:13;13.80;;;7.83;;
1128;SDS011;553;51.038;7.216;2022-10-30T04:45:41;16.40;;;7.23;;
1128;SDS011;553;51.038;7.216;2022-10-30T04:48:11;18.30;;;7.50;;
1128;SDS011;553;51.038;7.216;2022-10-30T04:50:41;16.00;;;7.67;;
1128;SDS011;553;51.038;7.216;2022-10-30T04:53:12;19.43;;;6.83;;
1128;SDS011;553;51.038;7.216;2022-10-30T04:55:41;10.90;;;7.00;;
1128;SDS011;553;51.038;7.216;2022-10-30T04:58:10;11.80;;;7.40;;
1128;SDS011;553;51.038;7.216;2022-10-30T05:00:39;14.77;;;7.73;;
1128;SDS011;553;51.038;7.216;2022-10-30T05:03:27;16.67;;;7.43;;
1128;SDS011;553;51.038;7.216;2022-10-30T05:06:01;12.03;;;8.10;;
1128;SDS011;553;51.038;7.216;2022-10-30T05:08:31;10.97;;;6.77;;
1128;SDS011;553;51.038;7.216;2022-10-30T05:11:03;13.67;;;7.30;;
1128;SDS011;553;51.038;7.216;2022-10-30T05:13:30;15.03;;;7.93;;
1128;SDS011;553;51.038;7.216;2022-10-30T05:15:57;17.50;;;7.70;;
1128;SDS011;553;51.038;7.216;2022-10-30T05:18:24;10.70;;;6.23;;
1128;SDS011;553;51.038;7.216;2022-10-30T05:20:51;17.80;;;7.40;;
1128;SDS011;553;51.038;7.216;2022-10-30T05:23:17;10.33;;;6.13;;
1128;SDS011;553;51.038;7.216;2022-10-30T05:25:44;11.13;;;6.97;;
1128;SDS011;553;51.038;7.216;2022-10-30T05:28:13;17.40;;;8.70;;
1128;SDS011;553;51.038;7.216;2022-10-30T05:30:45;14.00;;;7.10;;
1128;SDS011;553;51.038;7.216;2022-10-30T05:33:38;19.03;;;7.40;;
1128;SDS011;553;51.038;7.216;2022-10-30T05:36:04;15.47;;;7.07;;
1128;SDS011;553;51.038;7.216;2022-10-30T05:38:32;11.50;;;6.27;;
1128;SDS011;553;51.038;7.216;2022-10-30T05:40:59;13.80;;;7.23;;
1128;SDS011;553;51.038;7.216;2022-10-30T05:43:25;8.83;;;6.33;;
1128;SDS011;553;51.038;7.216;2022-10-30T05:45:52;13.50;;;7.10;;
1128;SDS011;553;51.038;7.216;2022-10-30T05:48:19;15.03;;;7.50;;
1128;SDS011;553;51.038;7.216;2022-10-30T05:50:45;17.20;;;7.50;;
1128;SDS011;553;51.038;7.216;2022-10-30T05:53:23;13.77;;;8.57;;
1128;SDS011;553;51.038;7.216;2022-10-30T05:55:55;15.43;;;8.00;;
1128;SDS011;553;51.038;7.216;2022-10-30T05:58:23;14.73;;;7.87;;
1128;SDS011;553;51.038;7.216;2022-10-30T06:00:52;16.93;;;9.10;;
1128;SDS011;553;51.038;7.216;2022-10-30T06:03:33;12.30;;;8.13;;
1128;SDS011;553;51.038;7.216;2022-10-30T06:06:00;13.10;;;8.80;;
1128;SDS011;553;51.038;7.216;2022-10-30T06:08:27;17.60;;;9.77;;
1128;SDS011;553;51.038;7.216;2022-10-30T06:10:56;15.03;;;8.37;;
1128;SDS011;553;51.038;7.216;2022-10-30T06:13:34;14.53;;;9.40;;
1128;SDS011;553;51.038;7.216;2022-10-30T06:16:07;15.50;;;8.90;;
1128;SDS011;553;51.038;7.216;2022-10-30T06:18:53;11.37;;;7.53;;
1128;SDS011;553;51.038;7.216;2022-10-30T06:21:19;18.50;;;8.80;;
1128;SDS011;553;51.038;7.216;2022-10-30T06:23:54;14.40;;;8.43;;
1128;SDS011;553;51.038;7.216;2022-10-30T06:26:34;13.53;;;7.83;;
1128;SDS011;553;51.038;7.216;2022-10-30T06:29:07;11.83;;;7.43;;
1128;SDS011;553;51.038;7.216;2022-10-30T06:31:33;14.50;;;8.00;;
1128;SDS011;553;51.038;7.216;2022-10-30T06:34:00;15.83;;;7.70;;
1128;SDS011;553;51.038;7.216;2022-10-30T06:36:30;16.13;;;7.97;;
1128;SDS011;553;51.038;7.216;2022-10-30T06:38:57;16.60;;;7.83;;
1128;SDS011;553;51.038;7.216;2022-10-30T06:41:29;36.23;;;23.07;;
1128;SDS011;553;51.038;7.216;2022-10-30T06:44:19;24.50;;;14.10;;
1128;SDS011;553;51.038;7.216;2022-10-30T06:46:45;14.83;;;9.50;;
1128;SDS011;553;51.038;7.216;2022-10-30T06:49:12;12.57;;;8.53;;
1128;SDS011;553;51.038;7.216;2022-10-30T06:51:38;11.57;;;8.10;;
1128;SDS011;553;51.038;7.216;2022-10-30T06:54:05;12.30;;;8.17;;
1128;SDS011;553;51.038;7.216;2022-10-30T06:56:52;13.27;;;7.13;;
1128;SDS011;553;51.038;7.216;2022-10-30T06:59:37;15.10;;;8.83;;
1128;SDS011;553;51.038;7.216;2022-10-30T07:02:22;11.17;;;6.80;;
1128;SDS011;553;51.038;7.216;2022-10-30T07:04:53;15.07;;;8.20;;
1128;SDS011;553;51.038;7.216;2022-10-30T07:07:19;20.50;;;8.27;;
1128;SDS011;553;51.038;7.216;2022-10-30T07:09:46;14.03;;;7.40;;
1128;SDS011;553;51.038;7.216;2022-10-30T07:12:16;17.50;;;8.00;;
1128;SDS011;553;51.038;7.216;2022-10-30T07:15:05;18.33;;;8.13;;
1128;SDS011;553;51.038;7.216;2022-10-30T07:17:38;11.27;;;6.70;;
1128;SDS011;553;51.038;7.216;2022-10-30T07:20:12;26.00;;;7.67;;
1128;SDS011;553;51.038;7.216;2022-10-30T07:22:39;20.13;;;8.43;;
1128;SDS011;553;51.038;7.216;2022-10-30T07:25:06;14.00;;;7.30;;
1128;SDS011;553;51.038;7.216;2022-10-30T07:27:39;17.40;;;7.87;;
1128;SDS011;553;51.038;7.216;2022-10-30T07:30:27;16.70;;;8.20;;
1128;SDS011;553;51.038;7.216;2022-10-30T07:33:16;13.07;;;8.50;;
1128;SDS011;553;51.038;7.216;2022-10-30T07:35:54;14.10;;;7.60;;
1128;SDS011;553;51.038;7.216;2022-10-30T07:38:43;14.57;;;7.57;;
1128;SDS011;553;51.038;7.216;2022-10-30T07:41:21;16.43;;;7.53;;
1128;SDS011;553;51.038;7.216;2022-10-30T07:43:50;12.37;;;7.30;;
1128;SDS011;553;51.038;7.216;2022-10-30T07:46:39;13.67;;;7.40;;
1128;SDS011;553;51.038;7.216;2022-10-30T07:49:21;10.80;;;6.47;;
1128;SDS011;553;51.038;7.216;2022-10-30T07:51:51;12.53;;;7.57;;
1128;SDS011;553;51.038;7.216;2022-10-30T07:54:18;13.33;;;7.47;;
1128;SDS011;553;51.038;7.216;2022-10-30T07:56:46;12.47;;;7.17;;
1128;SDS011;553;51.038;7.216;2022-10-30T07:59:31;16.60;;;7.07;;
1128;SDS011;553;51.038;7.216;2022-10-30T08:02:21;13.07;;;7.20;;
1128;SDS011;553;51.038;7.216;2022-10-30T08:05:03;14.67;;;7.67;;
1128;SDS011;553;51.038;7.216;2022-10-30T08:07:53;20.20;;;6.80;;
1128;SDS011;553;51.038;7.216;2022-10-30T08:10:20;12.10;;;7.07;;
1128;SDS011;553;51.038;7.216;2022-10-30T08:12:47;11.50;;;7.67;;
1128;SDS011;553;51.038;7.216;2022-10-30T08:15:14;14.93;;;7.07;;
1128;SDS011;553;51.038;7.216;2022-10-30T08:17:45;14.77;;;6.20;;
1128;SDS011;553;51.038;7.216;2022-10-30T08:20:13;13.80;;;6.47;;
1128;SDS011;553;51.038;7.216;2022-10-30T08:22:43;17.57;;;7.03;;
1128;SDS011;553;51.038;7.216;2022-10-30T08:25:24;12.90;;;5.67;;
1128;SDS011;553;51.038;7.216;2022-10-30T08:30:25;14.83;;;6.23;;
1128;SDS011;553;51.038;7.216;2022-10-30T08:32:56;13.17;;;5.97;;
1128;SDS011;553;51.038;7.216;2022-10-30T08:35:46;11.83;;;6.07;;
1128;SDS011;553;51.038;7.216;2022-10-30T08:38:15;9.37;;;5.50;;
1128;SDS011;553;51.038;7.216;2022-10-30T08:40:43;11.23;;;5.90;;
1128;SDS011;553;51.038;7.216;2022-10-30T08:43:10;11.40;;;5.70;;
1128;SDS011;553;51.038;7.216;2022-10-30T08:45:38;16.27;;;6.37;;
1128;SDS011;553;51.038;7.216;2022-10-30T08:48:13;12.27;;;6.50;;
1128;SDS011;553;51.038;7.216;2022-10-30T08:50:42;11.70;;;6.13;;
1128;SDS011;553;51.038;7.216;2022-10-30T08:53:13;13.10;;;5.80;;
1128;SDS011;553;51.038;7.216;2022-10-30T08:55:42;11.07;;;6.97;;
1128;SDS011;553;51.038;7.216;2022-10-30T08:58:18;13.47;;;6.20;;
1128;SDS011;553;51.038;7.216;2022-10-30T09:00:45;11.80;;;5.70;;
1128;SDS011;553;51.038;7.216;2022-10-30T09:03:12;11.97;;;6.27;;
1128;SDS011;553;51.038;7.216;2022-10-30T09:06:10;8.67;;;5.03;;
1128;SDS011;553;51.038;7.216;2022-10-30T09:09:02;12.87;;;5.87;;
1128;SDS011;553;51.038;7.216;2022-10-30T09:11:42;10.97;;;6.73;;
1128;SDS011;553;51.038;7.216;2022-10-30T09:14:08;10.07;;;5.77;;
1128;SDS011;553;51.038;7.216;2022-10-30T09:16:35;9.00;;;6.00;;
1128;SDS011;553;51.038;7.216;2022-10-30T09:19:01;16.80;;;6.40;;
1128;SDS011;553;51.038;7.216;2022-10-30T09:21:28;9.70;;;6.50;;
1128;SDS011;553;51.038;7.216;2022-10-30T09:23:55;12.23;;;5.50;;
1128;SDS011;553;51.038;7.216;2022-10-30T09:26:33;11.00;;;5.90;;
1128;SDS011;553;51.038;7.216;2022-10-30T09:29:19;16.77;;;6.23;;
1128;SDS011;553;51.038;7.216;2022-10-30T09:32:05;14.47;;;6.47;;
1128;SDS011;553;51.038;7.216;2022-10-30T09:34:46;10.37;;;5.60;;
1128;SDS011;553;51.038;7.216;2022-10-30T09:37:20;10.63;;;5.93;;
1128;SDS011;553;51.038;7.216;2022-10-30T09:39:52;12.40;;;5.80;;
1128;SDS011;553;51.038;7.216;2022-10-30T09:42:33;9.10;;;5.03;;
1128;SDS011;553;51.038;7.216;2022-10-30T09:54:20;13.20;;;5.20;;
1128;SDS011;553;51.038;7.216;2022-10-30T09:57:15;15.47;;;6.50;;
1128;SDS011;553;51.038;7.216;2022-10-30T10:02:29;9.97;;;4.83;;
1128;SDS011;553;51.038;7.216;2022-10-30T10:04:58;11.23;;;6.07;;
1128;SDS011;553;51.038;7.216;2022-10-30T10:07:51;11.27;;;5.60;;
1128;SDS011;553;51.038;7.216;2022-10-30T10:10:52;11.13;;;5.40;;
1128;SDS011;553;51.038;7.216;2022-10-30T10:16:24;11.97;;;5.47;;
1128;SDS011;553;51.038;7.216;2022-10-30T10:21:40;11.20;;;5.77;;
1128;SDS011;553;51.038;7.216;2022-10-30T10:24:13;11.93;;;4.97;;
1128;SDS011;553;51.038;7.216;2022-10-30T10:32:51;8.53;;;5.23;;
1128;SDS011;553;51.038;7.216;2022-10-30T10:38:26;15.93;;;4.80;;
1128;SDS011;553;51.038;7.216;2022-10-30T10:49:40;14.10;;;5.93;;
1128;SDS011;553;51.038;7.216;2022-10-30T10:55:15;8.70;;;4.43;;
1128;SDS011;553;51.038;7.216;2022-10-30T10:57:44;10.83;;;4.70;;
1128;SDS011;553;51.038;7.216;2022-10-30T11:00:16;7.60;;;4.37;;
1128;SDS011;553;51.038;7.216;2022-10-30T11:02:57;11.23;;;5.70;;
1128;SDS011;553;51.038;7.216;2022-10-30T11:10:53;11.77;;;5.03;;
1128;SDS011;553;51.038;7.216;2022-10-30T11:13:39;9.03;;;4.80;;
1128;SDS011;553;51.038;7.216;2022-10-30T11:18:52;11.93;;;4.90;;
1128;SDS011;553;51.038;7.216;2022-10-30T11:21:22;14.27;;;4.87;;
1128;SDS011;553;51.038;7.216;2022-10-30T11:23:51;9.97;;;4.47;;
1128;SDS011;553;51.038;7.216;2022-10-30T11:31:23;7.80;;;4.40;;
1128;SDS011;553;51.038;7.216;2022-10-30T11:36:46;12.10;;;5.10;;
1128;SDS011;553;51.038;7.216;2022-10-30T11:39:23;10.70;;;5.40;;
1128;SDS011;553;51.038;7.216;2022-10-30T11:42:11;15.17;;;5.33;;
1128;SDS011;553;51.038;7.216;2022-10-30T11:44:49;9.90;;;4.80;;
1128;SDS011;553;51.038;7.216;2022-10-30T11:47:21;10.30;;;4.93;;
1128;SDS011;553;51.038;7.216;2022-10-30T11:49:58;9.10;;;4.57;;
1128;SDS011;553;51.038;7.216;2022-10-30T11:52:26;12.50;;;4.57;;
1128;SDS011;553;51.038;7.216;2022-10-30T11:54:55;12.57;;;4.80;;
1128;SDS011;553;51.038;7.216;2022-10-30T11:57:45;13.73;;;5.27;;
1128;SDS011;553;51.038;7.216;2022-10-30T12:00:25;9.63;;;4.70;;
1128;SDS011;553;51.038;7.216;2022-10-30T12:02:57;13.03;;;4.27;;
1128;SDS011;553;51.038;7.216;2022-10-30T12:05:30;8.77;;;4.20;;
1128;SDS011;553;51.038;7.216;2022-10-30T12:08:19;10.83;;;4.17;;
1128;SDS011;553;51.038;7.216;2022-10-30T12:11:31;11.03;;;5.50;;
1128;SDS011;553;51.038;7.216;2022-10-30T12:13:36;10.50;;;3.97;;
1128;SDS011;553;51.038;7.216;2022-10-30T12:16:14;14.50;;;4.43;;
1128;SDS011;553;51.038;7.216;2022-10-30T12:21:47;10.80;;;4.53;;
1128;SDS011;553;51.038;7.216;2022-10-30T12:24:22;14.30;;;5.20;;
1128;SDS011;553;51.038;7.216;2022-10-30T12:26:59;11.53;;;3.93;;
1128;SDS011;553;51.038;7.216;2022-10-30T12:29:36;9.13;;;4.30;;
1128;SDS011;553;51.038;7.216;2022-10-30T12:33:13;11.33;;;5.10;;
1128;SDS011;553;51.038;7.216;2022-10-30T12:38:28;8.77;;;4.47;;
1128;SDS011;553;51.038;7.216;2022-10-30T12:44:08;9.53;;;4.20;;
1128;SDS011;553;51.038;7.216;2022-10-30T12:49:34;11.27;;;4.67;;
1128;SDS011;553;51.038;7.216;2022-10-30T12:57:45;11.10;;;4.50;;
1128;SDS011;553;51.038;7.216;2022-10-30T13:00:29;7.70;;;4.60;;
1128;SDS011;553;51.038;7.216;2022-10-30T13:05:59;11.17;;;4.50;;
1128;SDS011;553;51.038;7.216;2022-10-30T13:08:31;11.70;;;4.30;;
1128;SDS011;553;51.038;7.216;2022-10-30T13:11:11;11.50;;;4.87;;
1128;SDS011;553;51.038;7.216;2022-10-30T13:13:58;22.73;;;8.20;;
1128;SDS011;553;51.038;7.216;2022-10-30T13:16:26;10.20;;;4.90;;
1128;SDS011;553;51.038;7.216;2022-10-30T13:18:55;8.00;;;4.00;;
1128;SDS011;553;51.038;7.216;2022-10-30T13:24:01;8.00;;;3.77;;
1128;SDS011;553;51.038;7.216;2022-10-30T13:48:17;6.90;;;3.30;;
1128;SDS011;553;51.038;7.216;2022-10-30T13:54:24;10.13;;;4.53;;
1128;SDS011;553;51.038;7.216;2022-10-30T13:56:57;11.90;;;4.00;;
1128;SDS011;553;51.038;7.216;2022-10-30T14:05:47;8.90;;;3.57;;
1128;SDS011;553;51.038;7.216;2022-10-30T14:08:34;6.53;;;4.00;;
1128;SDS011;553;51.038;7.216;2022-10-30T14:11:05;8.13;;;3.67;;
1128;SDS011;553;51.038;7.216;2022-10-30T14:13:48;6.67;;;3.60;;
1128;SDS011;553;51.038;7.216;2022-10-30T14:16:34;10.73;;;3.90;;
1128;SDS011;553;51.038;7.216;2022-10-30T14:19:06;10.93;;;3.80;;
1128;SDS011;553;51.038;7.216;2022-10-30T14:21:41;9.17;;;4.27;;
1128;SDS011;553;51.038;7.216;2022-10-30T14:39:54;9.57;;;4.17;;
1128;SDS011;553;51.038;7.216;2022-10-30T14:42:34;8.47;;;3.27;;
1128;SDS011;553;51.038;7.216;2022-10-30T14:47:57;11.63;;;3.93;;
1128;SDS011;553;51.038;7.216;2022-10-30T14:50:40;6.30;;;4.00;;
1128;SDS011;553;51.038;7.216;2022-10-30T14:53:26;9.93;;;4.80;;
1128;SDS011;553;51.038;7.216;2022-10-30T14:59:32;6.47;;;3.30;;
1128;SDS011;553;51.038;7.216;2022-10-30T15:09:50;9.13;;;3.80;;
1128;SDS011;553;51.038;7.216;2022-10-30T15:13:11;10.10;;;3.77;;
1128;SDS011;553;51.038;7.216;2022-10-30T15:15:43;13.00;;;4.17;;
1128;SDS011;553;51.038;7.216;2022-10-30T15:18:15;7.07;;;4.10;;
1128;SDS011;553;51.038;7.216;2022-10-30T15:20:48;7.50;;;3.87;;
1128;SDS011;553;51.038;7.216;2022-10-30T15:23:22;6.93;;;3.60;;
1128;SDS011;553;51.038;7.216;2022-10-30T15:25:52;7.90;;;4.13;;
1128;SDS011;553;51.038;7.216;2022-10-30T15:28:21;6.30;;;3.60;;
1128;SDS011;553;51.038;7.216;2022-10-30T15:31:00;8.10;;;3.57;;
1128;SDS011;553;51.038;7.216;2022-10-30T15:33:32;9.27;;;3.60;;
1128;SDS011;553;51.038;7.216;2022-10-30T15:36:03;11.00;;;3.60;;
1128;SDS011;553;51.038;7.216;2022-10-30T15:38:30;11.00;;;4.50;;
1128;SDS011;553;51.038;7.216;2022-10-30T15:40:58;6.70;;;3.93;;
1128;SDS011;553;51.038;7.216;2022-10-30T15:43:28;8.57;;;4.27;;
1128;SDS011;553;51.038;7.216;2022-10-30T15:45:58;6.73;;;3.60;;
1128;SDS011;553;51.038;7.216;2022-10-30T15:48:34;6.47;;;3.70;;
1128;SDS011;553;51.038;7.216;2022-10-30T15:51:04;9.70;;;4.40;;
1128;SDS011;553;51.038;7.216;2022-10-30T15:53:39;9.53;;;3.93;;
1128;SDS011;553;51.038;7.216;2022-10-30T15:56:15;9.90;;;4.10;;
1128;SDS011;553;51.038;7.216;2022-10-30T15:58:51;7.10;;;3.27;;
1128;SDS011;553;51.038;7.216;2022-10-30T16:01:30;9.53;;;4.23;;
1128;SDS011;553;51.038;7.216;2022-10-30T16:03:59;5.90;;;3.60;;
1128;SDS011;553;51.038;7.216;2022-10-30T16:06:27;8.50;;;4.47;;
1128;SDS011;553;51.038;7.216;2022-10-30T16:08:57;11.63;;;3.70;;
1128;SDS011;553;51.038;7.216;2022-10-30T16:11:24;10.20;;;3.97;;
1128;SDS011;553;51.038;7.216;2022-10-30T16:13:51;8.90;;;4.40;;
1128;SDS011;553;51.038;7.216;2022-10-30T16:16:20;9.33;;;4.60;;
1128;SDS011;553;51.038;7.216;2022-10-30T16:18:57;7.43;;;3.80;;
1128;SDS011;553;51.038;7.216;2022-10-30T16:21:27;8.00;;;3.80;;
1128;SDS011;553;51.038;7.216;2022-10-30T16:23:56;7.43;;;3.70;;
1128;SDS011;553;51.038;7.216;2022-10-30T16:26:30;9.80;;;4.27;;
1128;SDS011;553;51.038;7.216;2022-10-30T16:31:42;10.90;;;4.23;;
1128;SDS011;553;51.038;7.216;2022-10-30T16:34:22;9.70;;;4.80;;
1128;SDS011;553;51.038;7.216;2022-10-30T16:36:51;7.50;;;4.70;;
1128;SDS011;553;51.038;7.216;2022-10-30T16:39:19;7.33;;;3.93;;
1128;SDS011;553;51.038;7.216;2022-10-30T16:41:47;11.90;;;4.80;;
1128;SDS011;553;51.038;7.216;2022-10-30T16:44:17;6.30;;;4.33;;
1128;SDS011;553;51.038;7.216;2022-10-30T16:46:56;9.67;;;4.43;;
1128;SDS011;553;51.038;7.216;2022-10-30T16:49:30;11.27;;;5.57;;
1128;SDS011;553;51.038;7.216;2022-10-30T16:52:03;6.97;;;4.57;;
1128;SDS011;553;51.038;7.216;2022-10-30T16:54:34;6.57;;;4.27;;
1128;SDS011;553;51.038;7.216;2022-10-30T16:57:08;9.73;;;4.87;;
1128;SDS011;553;51.038;7.216;2022-10-30T16:59:45;10.47;;;5.20;;
1128;SDS011;553;51.038;7.216;2022-10-30T17:02:15;6.30;;;4.30;;
1128;SDS011;553;51.038;7.216;2022-10-30T17:04:48;9.00;;;4.13;;
1128;SDS011;553;51.038;7.216;2022-10-30T17:07:24;11.10;;;4.93;;
1128;SDS011;553;51.038;7.216;2022-10-30T17:09:52;10.07;;;5.17;;
1128;SDS011;553;51.038;7.216;2022-10-30T17:12:22;13.27;;;5.57;;
1128;SDS011;553;51.038;7.216;2022-10-30T17:14:54;8.10;;;5.20;;
1128;SDS011;553;51.038;7.216;2022-10-30T17:18:07;7.43;;;5.20;;
1128;SDS011;553;51.038;7.216;2022-10-30T17:20:40;7.13;;;4.53;;
1128;SDS011;553;51.038;7.216;2022-10-30T17:23:15;11.13;;;5.33;;
1128;SDS011;553;51.038;7.216;2022-10-30T17:25:43;7.70;;;4.30;;
1128;SDS011;553;51.038;7.216;2022-10-30T17:28:25;9.37;;;5.70;;
1128;SDS011;553;51.038;7.216;2022-10-30T17:30:53;12.73;;;6.80;;
1128;SDS011;553;51.038;7.216;2022-10-30T17:33:21;11.97;;;7.73;;
1128;SDS011;553;51.038;7.216;2022-10-30T17:35:50;9.20;;;7.00;;
1128;SDS011;553;51.038;7.216;2022-10-30T17:38:17;16.87;;;8.13;;
1128;SDS011;553;51.038;7.216;2022-10-30T17:40:44;13.80;;;8.20;;
1128;SDS011;553;51.038;7.216;2022-10-30T17:43:11;13.77;;;8.10;;
1128;SDS011;553;51.038;7.216;2022-10-30T17:45:42;15.90;;;7.77;;
1128;SDS011;553;51.038;7.216;2022-10-30T17:48:12;14.10;;;7.60;;
1128;SDS011;553;51.038;7.216;2022-10-30T17:50:41;10.80;;;5.90;;
1128;SDS011;553;51.038;7.216;2022-10-30T17:53:11;6.70;;;5.37;;
1128;SDS011;553;51.038;7.216;2022-10-30T17:55:44;11.77;;;6.00;;
1128;SDS011;553;51.038;7.216;2022-10-30T17:58:22;11.13;;;6.93;;
1128;SDS011;553;51.038;7.216;2022-10-30T18:00:48;11.90;;;7.37;;
1128;SDS011;553;51.038;7.216;2022-10-30T18:03:15;21.13;;;8.30;;
1128;SDS011;553;51.038;7.216;2022-10-30T18:05:42;16.63;;;7.40;;
1128;SDS011;553;51.038;7.216;2022-10-30T18:08:09;12.10;;;7.03;;
1128;SDS011;553;51.038;7.216;2022-10-30T18:10:36;11.40;;;7.20;;
1128;SDS011;553;51.038;7.216;2022-10-30T18:13:03;8.67;;;5.83;;
1128;SDS011;553;51.038;7.216;2022-10-30T18:15:37;10.87;;;6.17;;
1128;SDS011;553;51.038;7.216;2022-10-30T18:18:06;12.47;;;6.87;;
1128;SDS011;553;51.038;7.216;2022-10-30T18:20:33;11.00;;;7.80;;
1128;SDS011;553;51.038;7.216;2022-10-30T18:23:00;13.30;;;6.93;;
1128;SDS011;553;51.038;7.216;2022-10-30T18:27:58;12.63;;;6.77;;
1128;SDS011;553;51.038;7.216;2022-10-30T18:30:25;13.67;;;7.00;;
1128;SDS011;553;51.038;7.216;2022-10-30T18:32:54;10.33;;;6.27;;
1128;SDS011;553;51.038;7.216;2022-10-30T18:35:35;16.93;;;6.67;;
1128;SDS011;553;51.038;7.216;2022-10-30T18:38:03;14.90;;;6.60;;
1128;SDS011;553;51.038;7.216;2022-10-30T18:40:30;10.37;;;6.50;;
1128;SDS011;553;51.038;7.216;2022-10-30T18:42:57;13.90;;;6.77;;
1128;SDS011;553;51.038;7.216;2022-10-30T18:45:25;13.20;;;7.43;;
1128;SDS011;553;51.038;7.216;2022-10-30T18:47:54;12.03;;;6.93;;
1128;SDS011;553;51.038;7.216;2022-10-30T18:50:23;14.37;;;6.87;;